Time;durP1;ratioP1;P1;durP2;ratioP2;P2;SDS_P1;SDS_P2;PMS_P1;PMS_P2;Temp;Humidity;BMP_temperature;BMP_pressure;BME280_temperature;BME280_humidity;BME280_pressure;Samples;Min_cycle;Max_cycle;Signal;HPM_P1;HPM_P2
2022/06/19 00:00:49;;;;;;;14.27;3.17;;;18.60;99.90;;;;;;5066575;28;20204;-57
2022/06/19 00:03:24;;;;;;;10.80;2.93;;;18.50;99.90;;;;;;5071661;28;20264;-57
2022/06/19 00:05:53;;;;;;;10.80;3.60;;;18.50;99.90;;;;;;5079152;28;20285;-57
2022/06/19 00:08:22;;;;;;;12.17;3.37;;;18.40;99.90;;;;;;5051205;28;20700;-58
2022/06/19 00:10:50;;;;;;;7.73;3.23;;;18.30;99.90;;;;;;5068768;28;20649;-57
2022/06/19 00:13:19;;;;;;;14.67;3.30;;;18.30;99.90;;;;;;5070275;28;20202;-57
2022/06/19 00:15:47;;;;;;;12.53;3.40;;;18.20;99.90;;;;;;5069077;28;20294;-57
2022/06/19 00:18:15;;;;;;;14.47;3.40;;;18.20;99.90;;;;;;5069905;28;20268;-57
2022/06/19 00:20:45;;;;;;;9.70;3.10;;;18.20;99.90;;;;;;5067291;28;20700;-58
2022/06/19 00:23:14;;;;;;;6.23;2.70;;;18.20;99.90;;;;;;5072709;28;20200;-57
2022/06/19 00:25:43;;;;;;;13.77;3.60;;;18.10;99.90;;;;;;5086911;28;20570;-58
2022/06/19 00:28:12;;;;;;;16.13;3.53;;;18.10;99.90;;;;;;5074362;28;20213;-58
2022/06/19 00:30:40;;;;;;;16.63;3.30;;;18.00;99.90;;;;;;5072247;28;20665;-58
2022/06/19 00:33:09;;;;;;;19.57;3.57;;;17.90;99.90;;;;;;5073960;28;20242;-57
2022/06/19 00:35:37;;;;;;;13.80;3.30;;;17.80;99.90;;;;;;5061246;28;20194;-57
2022/06/19 00:38:07;;;;;;;12.53;3.00;;;17.80;99.90;;;;;;5074471;28;20218;-56
2022/06/19 00:40:35;;;;;;;13.97;2.93;;;17.80;99.90;;;;;;5067529;28;20195;-56
2022/06/19 00:43:03;;;;;;;13.73;3.00;;;17.70;99.90;;;;;;5073217;28;20198;-57
2022/06/19 00:45:35;;;;;;;9.17;2.93;;;17.70;99.90;;;;;;5075015;28;20276;-57
2022/06/19 00:48:11;;;;;;;9.37;2.80;;;17.70;99.90;;;;;;5073178;28;20212;-57
2022/06/19 00:50:40;;;;;;;12.43;2.70;;;17.60;99.90;;;;;;5071344;28;20210;-58
2022/06/19 00:53:16;;;;;;;11.13;2.63;;;17.60;99.90;;;;;;5074310;28;20194;-57
2022/06/19 00:55:47;;;;;;;12.80;2.60;;;17.50;99.90;;;;;;5050951;28;20205;-56
2022/06/19 00:58:21;;;;;;;11.60;2.20;;;17.50;99.90;;;;;;5048801;28;20226;-56
2022/06/19 01:00:57;;;;;;;11.80;2.40;;;17.40;99.90;;;;;;5071915;28;20220;-57
2022/06/19 01:03:34;;;;;;;11.27;3.40;;;17.40;99.90;;;;;;5074501;28;20220;-59
2022/06/19 01:06:03;;;;;;;9.30;2.20;;;17.40;99.90;;;;;;5073926;28;20215;-57
2022/06/19 01:08:33;;;;;;;8.93;2.60;;;17.30;99.90;;;;;;5071205;28;20308;-56
2022/06/19 01:11:01;;;;;;;8.77;2.23;;;17.30;99.90;;;;;;5073781;28;20282;-56
2022/06/19 01:13:31;;;;;;;5.93;2.00;;;17.30;99.90;;;;;;5063696;28;20216;-57
2022/06/19 01:16:02;;;;;;;10.47;2.80;;;17.20;99.90;;;;;;5072874;28;20649;-57
2022/06/19 01:18:32;;;;;;;10.43;2.90;;;17.10;99.90;;;;;;5071952;28;20214;-57
2022/06/19 01:21:11;;;;;;;13.40;3.00;;;17.10;99.90;;;;;;5047202;28;20191;-57
2022/06/19 01:23:48;;;;;;;5.67;2.10;;;17.00;99.90;;;;;;5066096;28;20228;-57
2022/06/19 01:26:19;;;;;;;16.63;2.90;;;16.90;99.90;;;;;;5071979;28;20202;-57
2022/06/19 01:28:54;;;;;;;12.57;2.20;;;16.90;99.90;;;;;;5070203;28;20188;-57
2022/06/19 01:31:27;;;;;;;15.67;2.43;;;16.80;99.90;;;;;;5087769;28;20225;-58
2022/06/19 01:34:00;;;;;;;8.20;2.20;;;16.80;99.90;;;;;;5055443;28;20189;-57
2022/06/19 01:36:31;;;;;;;10.60;2.13;;;16.80;99.90;;;;;;5068900;28;20559;-57
2022/06/19 01:39:01;;;;;;;9.70;2.17;;;16.80;99.90;;;;;;5072194;28;20307;-57
2022/06/19 01:41:37;;;;;;;6.13;2.40;;;16.80;99.90;;;;;;5073619;28;20280;-59
2022/06/19 01:44:05;;;;;;;7.70;2.20;;;16.90;99.90;;;;;;5073005;28;20197;-57
2022/06/19 01:46:35;;;;;;;13.90;2.63;;;16.90;99.90;;;;;;5073707;28;20211;-58
2022/06/19 01:49:04;;;;;;;9.23;2.30;;;16.90;99.90;;;;;;5071874;28;20204;-57
2022/06/19 01:51:33;;;;;;;8.47;2.57;;;16.90;99.90;;;;;;5072442;28;20190;-57
2022/06/19 01:54:06;;;;;;;10.13;2.23;;;16.80;99.90;;;;;;5069993;28;20276;-58
2022/06/19 01:56:36;;;;;;;7.20;2.03;;;16.80;99.90;;;;;;5071967;28;20254;-57
2022/06/19 01:59:09;;;;;;;5.77;2.07;;;16.90;99.90;;;;;;5053905;28;20212;-57
2022/06/19 02:01:39;;;;;;;8.47;2.30;;;16.90;99.90;;;;;;5073399;28;20259;-58
2022/06/19 02:04:08;;;;;;;14.57;1.90;;;16.90;99.90;;;;;;5072375;28;20323;-59
2022/06/19 02:06:40;;;;;;;18.60;2.23;;;16.80;99.90;;;;;;5077864;28;20233;-57
2022/06/19 02:09:10;;;;;;;17.17;2.33;;;16.80;99.90;;;;;;5072979;28;20589;-57
2022/06/19 02:11:39;;;;;;;15.07;2.53;;;16.80;99.90;;;;;;5076856;28;20267;-56
2022/06/19 02:14:10;;;;;;;15.80;2.43;;;16.70;99.90;;;;;;5072490;28;20673;-58
2022/06/19 02:16:41;;;;;;;19.07;2.37;;;16.70;99.90;;;;;;5070283;28;20203;-57
2022/06/19 02:19:10;;;;;;;11.70;2.53;;;16.60;99.90;;;;;;5054206;28;20184;-57
2022/06/19 02:21:41;;;;;;;7.90;2.10;;;16.60;99.90;;;;;;5071975;28;20287;-59
2022/06/19 02:24:15;;;;;;;17.17;2.70;;;16.50;99.90;;;;;;5069683;28;20202;-57
2022/06/19 02:26:47;;;;;;;11.07;2.30;;;16.50;99.90;;;;;;5069943;28;20601;-57
2022/06/19 02:29:18;;;;;;;19.83;2.80;;;16.40;99.90;;;;;;5065811;28;20193;-58
2022/06/19 02:31:49;;;;;;;10.00;2.43;;;16.40;99.90;;;;;;5069852;28;20284;-58
2022/06/19 02:34:22;;;;;;;13.90;2.60;;;16.30;99.90;;;;;;5076282;28;20323;-58
2022/06/19 02:36:53;;;;;;;12.07;2.67;;;16.30;99.90;;;;;;5054682;28;20743;-58
2022/06/19 02:39:36;;;;;;;19.00;2.47;;;16.20;99.90;;;;;;5065467;28;20204;-58
2022/06/19 02:42:26;;;;;;;11.73;2.10;;;16.20;99.90;;;;;;5070549;28;20196;-59
2022/06/19 02:44:57;;;;;;;9.03;2.37;;;16.20;99.90;;;;;;5057633;28;20215;-58
2022/06/19 02:47:27;;;;;;;14.73;2.27;;;16.20;99.90;;;;;;5069102;28;20184;-58
2022/06/19 02:49:56;;;;;;;11.50;2.13;;;16.20;99.90;;;;;;5059758;28;20697;-58
2022/06/19 02:52:25;;;;;;;10.37;1.93;;;16.20;99.90;;;;;;5084074;28;20185;-57
2022/06/19 02:54:56;;;;;;;4.97;1.70;;;16.20;99.90;;;;;;5068536;28;20192;-57
2022/06/19 02:57:26;;;;;;;9.93;2.20;;;16.10;99.90;;;;;;5067406;28;20208;-58
2022/06/19 02:59:55;;;;;;;11.60;2.20;;;16.10;99.90;;;;;;5069198;28;20204;-58
2022/06/19 03:02:25;;;;;;;10.97;2.90;;;16.10;99.90;;;;;;5046220;28;20197;-57
2022/06/19 03:04:57;;;;;;;9.47;2.20;;;16.10;99.90;;;;;;5072860;28;20200;-58
2022/06/19 03:07:26;;;;;;;5.03;1.80;;;16.10;99.90;;;;;;5071401;28;20188;-57
2022/06/19 03:09:55;;;;;;;5.20;1.90;;;16.10;99.90;;;;;;5066573;28;20652;-58
2022/06/19 03:12:24;;;;;;;9.77;1.53;;;16.00;99.90;;;;;;5071790;28;20556;-58
2022/06/19 03:14:53;;;;;;;7.40;1.53;;;16.00;99.90;;;;;;5070024;28;20207;-59
2022/06/19 03:17:23;;;;;;;7.33;1.87;;;16.00;99.90;;;;;;5070782;28;20279;-59
2022/06/19 03:19:56;;;;;;;6.33;1.93;;;16.00;99.90;;;;;;5070774;28;20196;-58
2022/06/19 03:22:25;;;;;;;10.30;2.13;;;16.00;99.90;;;;;;5072483;28;20196;-58
2022/06/19 03:24:53;;;;;;;7.23;1.70;;;16.00;99.90;;;;;;5071491;28;20231;-58
2022/06/19 03:27:21;;;;;;;9.70;2.13;;;16.00;99.90;;;;;;5070772;28;20205;-59
2022/06/19 03:29:50;;;;;;;13.77;2.27;;;16.00;99.90;;;;;;5072898;28;20219;-58
2022/06/19 03:32:20;;;;;;;3.47;1.90;;;16.00;99.90;;;;;;5073514;28;20192;-58
2022/06/19 03:34:49;;;;;;;8.60;1.90;;;15.90;99.90;;;;;;5088503;28;20279;-57
2022/06/19 03:37:20;;;;;;;8.30;2.03;;;15.90;99.90;;;;;;5072038;28;20196;-59
2022/06/19 03:39:50;;;;;;;8.27;2.17;;;16.00;99.90;;;;;;5067080;28;20221;-58
2022/06/19 03:42:21;;;;;;;6.97;1.70;;;16.00;99.90;;;;;;5070933;28;20193;-58
2022/06/19 03:44:49;;;;;;;9.03;1.80;;;16.10;99.90;;;;;;5070782;28;20601;-58
2022/06/19 03:47:22;;;;;;;9.80;1.73;;;16.10;99.90;;;;;;5075706;28;20699;-58
2022/06/19 03:49:52;;;;;;;13.60;2.47;;;16.10;99.90;;;;;;5075891;28;20212;-60
2022/06/19 03:52:20;;;;;;;8.30;1.57;;;16.10;99.90;;;;;;5074744;28;20200;-59
2022/06/19 03:54:49;;;;;;;6.57;1.50;;;16.20;99.90;;;;;;5069747;28;20554;-58
2022/06/19 03:57:17;;;;;;;4.60;1.70;;;16.20;99.90;;;;;;5076731;28;20208;-57
2022/06/19 03:59:48;;;;;;;6.73;1.63;;;16.20;99.90;;;;;;5076948;28;20299;-59
2022/06/19 04:02:18;;;;;;;6.17;1.63;;;16.30;99.90;;;;;;5075628;28;20188;-57
2022/06/19 04:05:00;;;;;;;6.37;1.60;;;16.20;99.90;;;;;;5055900;28;20645;-58
2022/06/19 04:07:30;;;;;;;3.03;1.30;;;16.30;99.90;;;;;;5076079;28;20588;-58
2022/06/19 04:09:59;;;;;;;4.83;1.67;;;16.30;99.90;;;;;;5075339;28;20184;-58
2022/06/19 04:12:28;;;;;;;5.73;1.60;;;16.30;99.90;;;;;;5072362;28;20193;-58
2022/06/19 04:14:56;;;;;;;10.03;1.70;;;16.40;99.90;;;;;;5074792;28;20204;-58
2022/06/19 04:17:25;;;;;;;1.57;1.30;;;16.30;99.90;;;;;;5055603;28;20194;-58
2022/06/19 04:19:53;;;;;;;5.80;1.50;;;16.30;99.90;;;;;;5075763;28;20406;-58
2022/06/19 04:22:23;;;;;;;2.50;1.40;;;16.40;99.90;;;;;;5074747;28;20258;-58
2022/06/19 04:24:51;;;;;;;4.87;1.33;;;16.40;99.90;;;;;;5076005;28;20255;-58
2022/06/19 04:27:20;;;;;;;5.37;1.60;;;16.40;99.90;;;;;;5069908;28;20201;-59
2022/06/19 04:29:49;;;;;;;5.87;1.80;;;16.40;99.90;;;;;;5071602;28;20220;-57
2022/06/19 04:32:17;;;;;;;6.10;1.47;;;16.40;99.90;;;;;;5074413;28;20579;-58
2022/06/19 04:34:45;;;;;;;3.40;1.50;;;16.30;99.90;;;;;;5074454;28;20194;-59
2022/06/19 04:37:14;;;;;;;5.53;1.60;;;16.10;99.90;;;;;;5057407;28;20290;-58
2022/06/19 04:39:44;;;;;;;4.53;1.50;;;16.00;99.90;;;;;;5051446;28;20220;-58
2022/06/19 04:42:12;;;;;;;7.53;1.90;;;15.90;99.90;;;;;;5055780;28;20196;-58
2022/06/19 04:44:40;;;;;;;1.47;1.30;;;15.80;99.90;;;;;;5073250;28;20291;-58
2022/06/19 04:47:08;;;;;;;6.97;1.77;;;15.90;99.90;;;;;;5071391;28;20204;-58
2022/06/19 04:49:37;;;;;;;7.10;1.83;;;15.90;99.90;;;;;;5086071;28;20269;-59
2022/06/19 04:52:06;;;;;;;3.30;1.43;;;16.00;99.90;;;;;;5075707;28;20284;-58
2022/06/19 04:54:34;;;;;;;3.73;1.30;;;16.00;99.90;;;;;;5094467;28;20222;-58
2022/06/19 04:57:05;;;;;;;3.20;1.13;;;16.10;99.90;;;;;;5076308;28;20202;-59
2022/06/19 04:59:35;;;;;;;5.47;1.60;;;16.20;99.90;;;;;;5058973;28;20553;-58
2022/06/19 05:02:04;;;;;;;10.63;1.50;;;16.20;99.90;;;;;;5075103;28;20199;-58
2022/06/19 05:04:33;;;;;;;6.37;1.40;;;16.20;99.90;;;;;;5075308;28;20277;-57
2022/06/19 05:07:01;;;;;;;10.73;1.87;;;16.20;99.90;;;;;;5074970;28;20272;-58
2022/06/19 05:09:29;;;;;;;5.60;1.30;;;16.20;99.90;;;;;;5061667;28;20203;-58
2022/06/19 05:11:57;;;;;;;3.80;1.47;;;16.10;99.90;;;;;;5074974;28;20192;-58
2022/06/19 05:14:27;;;;;;;2.87;1.43;;;16.10;99.90;;;;;;5075155;28;20192;-58
2022/06/19 05:16:56;;;;;;;4.67;1.63;;;16.10;99.90;;;;;;5059745;28;20200;-58
2022/06/19 05:19:25;;;;;;;12.67;1.60;;;16.10;99.90;;;;;;5066469;28;20244;-58
2022/06/19 05:21:53;;;;;;;4.67;1.43;;;16.20;99.90;;;;;;5056701;28;20196;-58
2022/06/19 05:24:21;;;;;;;1.70;1.40;;;16.30;99.90;;;;;;5075191;28;20203;-57
2022/06/19 05:26:51;;;;;;;5.20;1.40;;;16.30;99.90;;;;;;5074347;28;20248;-58
2022/06/19 05:29:20;;;;;;;3.60;1.50;;;16.30;99.90;;;;;;5074803;28;20723;-58
2022/06/19 05:31:50;;;;;;;6.23;1.47;;;16.20;99.90;;;;;;5069694;28;20207;-58
2022/06/19 05:34:18;;;;;;;10.97;1.60;;;16.20;99.90;;;;;;5083570;28;20207;-57
2022/06/19 05:36:46;;;;;;;3.70;1.40;;;16.10;99.90;;;;;;5070169;28;20207;-57
2022/06/19 05:39:15;;;;;;;1.40;1.20;;;16.00;99.90;;;;;;5063121;28;20232;-58
2022/06/19 05:41:43;;;;;;;6.80;1.60;;;15.90;99.90;;;;;;5066116;28;20282;-57
2022/06/19 05:44:12;;;;;;;8.20;1.60;;;15.90;99.90;;;;;;5073653;28;20200;-57
2022/06/19 05:46:41;;;;;;;10.07;1.90;;;15.80;99.90;;;;;;5073332;28;20188;-58
2022/06/19 05:49:11;;;;;;;4.50;1.97;;;15.80;99.90;;;;;;5070500;28;20692;-57
2022/06/19 05:51:40;;;;;;;11.70;2.40;;;15.70;99.90;;;;;;5070353;28;20287;-58
2022/06/19 05:54:08;;;;;;;8.93;2.03;;;15.60;99.90;;;;;;5074062;28;20192;-58
2022/06/19 05:56:36;;;;;;;12.97;2.07;;;15.50;99.90;;;;;;5066238;28;20203;-58
2022/06/19 05:59:05;;;;;;;8.93;1.97;;;15.30;99.90;;;;;;5072935;28;20829;-58
2022/06/19 06:01:33;;;;;;;8.10;2.37;;;15.10;99.90;;;;;;5072274;28;20257;-58
2022/06/19 06:04:02;;;;;;;6.43;2.00;;;14.80;99.90;;;;;;5082073;28;20228;-58
2022/06/19 06:06:33;;;;;;;8.47;2.00;;;14.80;99.90;;;;;;5046811;28;20205;-59
2022/06/19 06:09:01;;;;;;;13.40;2.47;;;14.60;99.90;;;;;;5048313;28;20201;-58
2022/06/19 06:11:30;;;;;;;13.87;2.50;;;14.50;99.90;;;;;;5053787;28;20196;-58
2022/06/19 06:13:58;;;;;;;7.33;2.20;;;14.40;99.90;;;;;;5050896;28;20188;-58
2022/06/19 06:16:26;;;;;;;8.47;2.40;;;14.40;99.90;;;;;;5048866;28;20546;-59
2022/06/19 06:18:55;;;;;;;10.20;2.53;;;14.30;99.90;;;;;;5049886;28;20224;-58
2022/06/19 06:21:25;;;;;;;5.73;2.17;;;14.20;99.90;;;;;;5053137;28;20212;-58
2022/06/19 06:23:55;;;;;;;12.90;2.77;;;14.20;99.90;;;;;;5051244;28;20197;-58
2022/06/19 06:26:26;;;;;;;12.13;2.90;;;14.00;99.90;;;;;;5049364;28;20203;-58
2022/06/19 06:28:56;;;;;;;7.47;2.30;;;13.90;99.90;;;;;;5054077;28;20204;-58
2022/06/19 06:31:24;;;;;;;7.50;2.60;;;13.80;99.90;;;;;;5050494;28;20188;-57
2022/06/19 06:33:57;;;;;;;10.30;2.97;;;13.70;99.90;;;;;;5056419;28;20239;-57
2022/06/19 06:36:26;;;;;;;17.07;3.47;;;13.70;99.90;;;;;;5052506;28;20196;-58
2022/06/19 06:38:56;;;;;;;13.13;3.20;;;13.60;99.90;;;;;;5048917;28;20199;-58
2022/06/19 06:41:24;;;;;;;14.43;2.93;;;13.60;99.90;;;;;;5051475;28;20217;-58
2022/06/19 06:43:53;;;;;;;15.20;2.67;;;13.70;99.90;;;;;;5047774;28;20279;-58
2022/06/19 06:46:23;;;;;;;10.27;3.00;;;13.70;99.90;;;;;;5047503;28;20201;-59
2022/06/19 06:48:56;;;;;;;10.40;3.40;;;13.80;99.90;;;;;;5045845;28;20283;-59
2022/06/19 06:51:27;;;;;;;16.43;2.90;;;13.80;99.90;;;;;;5057753;28;20684;-59
2022/06/19 06:53:59;;;;;;;14.90;2.70;;;13.90;99.90;;;;;;5049543;28;20279;-59
2022/06/19 06:56:31;;;;;;;13.43;2.70;;;14.00;99.90;;;;;;5048080;28;20882;-59
2022/06/19 06:59:00;;;;;;;9.17;2.67;;;14.00;99.90;;;;;;5049630;28;20222;-59
2022/06/19 07:01:32;;;;;;;9.77;2.90;;;14.10;99.90;;;;;;5046586;28;20224;-59
2022/06/19 07:04:00;;;;;;;9.43;2.63;;;14.10;99.90;;;;;;5062992;28;20240;-58
2022/06/19 07:06:31;;;;;;;12.97;3.30;;;14.10;99.90;;;;;;5057658;28;20246;-59
2022/06/19 07:09:02;;;;;;;10.80;3.13;;;14.10;99.90;;;;;;5067217;28;20249;-58
2022/06/19 07:11:37;;;;;;;11.63;3.10;;;14.20;99.90;;;;;;5068240;28;20718;-58
2022/06/19 07:14:07;;;;;;;8.77;2.77;;;14.30;99.90;;;;;;5066729;28;20278;-59
2022/06/19 07:16:37;;;;;;;10.77;3.13;;;14.40;99.90;;;;;;5083397;28;20192;-59
2022/06/19 07:19:05;;;;;;;11.37;3.00;;;14.60;99.90;;;;;;5053070;28;20649;-58
2022/06/19 07:21:34;;;;;;;10.03;2.73;;;14.60;99.90;;;;;;5065911;28;20224;-59
2022/06/19 07:24:04;;;;;;;9.30;2.50;;;14.70;99.90;;;;;;5054681;28;20283;-59
2022/06/19 07:26:34;;;;;;;7.90;2.93;;;14.80;99.90;;;;;;5063428;28;20202;-59
2022/06/19 07:29:03;;;;;;;12.77;2.70;;;14.90;99.90;;;;;;5063493;28;20537;-59
2022/06/19 07:31:36;;;;;;;10.10;2.90;;;15.00;99.90;;;;;;5065495;28;20196;-59
2022/06/19 07:34:07;;;;;;;14.23;3.40;;;15.10;99.90;;;;;;5061649;28;20199;-58
2022/06/19 07:36:43;;;;;;;9.97;2.90;;;15.20;99.90;;;;;;5065114;28;20187;-58
2022/06/19 07:39:15;;;;;;;15.40;3.00;;;15.40;99.90;;;;;;5066957;28;20271;-58
2022/06/19 07:41:43;;;;;;;12.20;3.20;;;15.40;99.90;;;;;;5064016;28;20672;-58
2022/06/19 07:44:11;;;;;;;15.10;3.10;;;15.50;99.90;;;;;;5069607;28;20218;-58
2022/06/19 07:52:07;;;;;;;13.77;3.27;;;15.50;99.90;;;;;;5049806;28;20238;-57
2022/06/19 07:54:39;;;;;;;15.53;3.17;;;15.50;99.90;;;;;;5046244;28;20223;-58
2022/06/19 07:57:07;;;;;;;15.27;2.70;;;15.50;99.90;;;;;;5064452;28;20196;-58
2022/06/19 07:59:36;;;;;;;12.03;3.67;;;15.40;99.90;;;;;;5063748;28;20527;-60
2022/06/19 08:02:05;;;;;;;12.23;2.93;;;15.50;99.90;;;;;;5068265;28;20298;-57
2022/06/19 08:05:13;;;;;;;8.77;3.13;;;15.50;99.90;;;;;;5065484;28;20241;-58
2022/06/19 08:07:44;;;;;;;10.20;3.37;;;15.60;99.90;;;;;;5068089;28;20808;-61
2022/06/19 08:10:35;;;;;;;11.20;2.67;;;15.80;99.90;;;;;;5067157;28;20192;-58
2022/06/19 08:13:31;;;;;;;15.87;2.77;;;15.90;99.90;;;;;;5068036;28;20198;-57
2022/06/19 08:16:19;;;;;;;6.00;2.53;;;15.90;99.90;;;;;;5058741;28;20203;-58
2022/06/19 08:18:48;;;;;;;8.50;2.53;;;16.10;99.90;;;;;;5064330;28;20204;-59
2022/06/19 08:21:16;;;;;;;9.80;2.67;;;16.20;99.90;;;;;;5062310;28;20290;-59
2022/06/19 08:23:46;;;;;;;13.47;2.67;;;16.20;99.90;;;;;;5075528;28;20231;-59
2022/06/19 08:26:16;;;;;;;12.30;2.97;;;16.20;99.90;;;;;;5043855;28;20252;-58
2022/06/19 08:29:03;;;;;;;7.97;2.47;;;16.30;99.90;;;;;;5061462;28;20275;-59
2022/06/19 08:31:34;;;;;;;9.23;3.03;;;16.40;99.90;;;;;;5064789;28;20184;-58
2022/06/19 08:34:03;;;;;;;14.37;3.13;;;16.50;99.90;;;;;;5084865;28;20195;-58
2022/06/19 08:36:34;;;;;;;13.47;3.30;;;16.60;99.90;;;;;;5068422;28;20279;-58
2022/06/19 08:39:29;;;;;;;9.23;2.80;;;16.70;99.90;;;;;;5076564;28;20190;-58
2022/06/19 08:42:29;;;;;;;12.40;2.87;;;16.90;99.90;;;;;;5069624;28;20218;-59
2022/06/19 08:45:16;;;;;;;8.60;2.50;;;17.20;99.90;;;;;;5074147;28;20221;-59
2022/06/19 08:48:25;;;;;;;12.07;2.93;;;17.50;99.90;;;;;;5073039;28;20636;-58
2022/06/19 08:51:01;;;;;;;14.13;3.83;;;17.70;99.90;;;;;;5078975;28;20199;-58
2022/06/19 08:53:56;;;;;;;9.17;3.00;;;17.80;99.90;;;;;;5072965;28;20721;-58
2022/06/19 08:56:38;;;;;;;9.73;2.93;;;17.80;99.90;;;;;;5069196;28;20200;-58
2022/06/19 08:59:16;;;;;;;11.67;2.80;;;17.80;99.90;;;;;;5068922;28;20188;-58
2022/06/19 09:02:01;;;;;;;12.43;2.60;;;17.80;99.90;;;;;;5069108;28;20246;-59
2022/06/19 09:08:07;;;;;;;12.63;2.93;;;17.80;99.90;;;;;;5010918;28;20198;-58
2022/06/19 09:10:43;;;;;;;9.30;2.67;;;17.80;99.90;;;;;;5060545;28;20278;-58
2022/06/19 09:13:39;;;;;;;11.43;2.33;;;17.70;99.90;;;;;;5070331;28;20202;-58
2022/06/19 09:16:47;;;;;;;10.33;3.00;;;17.70;99.90;;;;;;5056420;28;20579;-58
2022/06/19 09:19:26;;;;;;;11.80;2.63;;;17.60;99.90;;;;;;5068869;28;20700;-58
2022/06/19 09:22:16;;;;;;;10.50;2.77;;;17.70;99.90;;;;;;5078598;28;20209;-58
2022/06/19 09:24:59;;;;;;;7.07;2.47;;;17.80;99.90;;;;;;5066920;28;20219;-58
2022/06/19 09:27:34;;;;;;;7.30;2.43;;;17.70;99.90;;;;;;5070412;28;20193;-58
2022/06/19 09:30:09;;;;;;;8.57;2.63;;;17.70;99.90;;;;;;5073617;28;20635;-58
2022/06/19 09:32:44;;;;;;;5.57;2.27;;;17.80;99.90;;;;;;5073160;28;20194;-58
2022/06/19 09:35:38;;;;;;;9.30;2.50;;;17.90;99.90;;;;;;5066535;28;20200;-58
2022/06/19 09:38:15;;;;;;;12.33;3.27;;;17.90;99.90;;;;;;5071354;28;20200;-58
2022/06/19 09:40:48;;;;;;;8.80;2.63;;;18.00;99.90;;;;;;5061419;28;20593;-58
2022/06/19 09:43:23;;;;;;;13.43;3.63;;;18.20;99.90;;;;;;5073942;28;20283;-58
2022/06/19 09:46:19;;;;;;;7.43;2.50;;;18.40;99.90;;;;;;5084567;28;20276;-58
2022/06/19 09:49:25;;;;;;;11.00;2.83;;;18.50;99.90;;;;;;5037128;28;20266;-58
2022/06/19 09:52:23;;;;;;;9.60;2.90;;;18.80;99.90;;;;;;5066867;28;20265;-58
2022/06/19 09:54:58;;;;;;;5.37;2.50;;;19.10;99.90;;;;;;5071445;28;20192;-58
2022/06/19 10:02:39;;;;;;;10.33;2.87;;;19.20;99.90;;;;;;5065918;28;20215;-58
2022/06/19 10:05:16;;;;;;;8.00;2.87;;;19.20;99.90;;;;;;5022461;28;20316;-58
2022/06/19 10:08:15;;;;;;;8.60;3.10;;;19.10;99.90;;;;;;5033740;28;20189;-59
2022/06/19 10:10:50;;;;;;;9.43;3.03;;;19.30;99.90;;;;;;5030638;28;20190;-58
2022/06/19 10:13:36;;;;;;;6.67;2.57;;;19.80;99.90;;;;;;5033116;28;20216;-58
2022/06/19 10:16:28;;;;;;;11.60;2.90;;;20.30;99.90;;;;;;5020073;28;20189;-58
2022/06/19 10:18:58;;;;;;;8.53;2.53;;;20.70;99.90;;;;;;5030587;28;20201;-58
2022/06/19 10:24:31;;;;;;;7.60;2.80;;;21.30;99.90;;;;;;5023635;28;20276;-58
2022/06/19 10:27:42;;;;;;;7.30;2.80;;;21.30;99.90;;;;;;5024229;28;20199;-58
2022/06/19 10:34:21;;;;;;;7.67;2.70;;;21.30;99.90;;;;;;5030097;28;20181;-59
2022/06/19 10:37:01;;;;;;;7.93;2.40;;;21.20;99.90;;;;;;5034711;28;20208;-58
2022/06/19 10:40:03;;;;;;;6.83;2.70;;;21.10;99.90;;;;;;5032484;28;20898;-59
2022/06/19 10:46:08;;;;;;;6.93;3.07;;;20.80;99.90;;;;;;5031161;28;20514;-58
2022/06/19 10:48:47;;;;;;;7.60;2.80;;;20.60;99.90;;;;;;5024066;28;20186;-59
2022/06/19 10:51:44;;;;;;;9.03;2.80;;;20.30;99.90;;;;;;5035432;28;20550;-59
2022/06/19 10:54:46;;;;;;;11.50;2.93;;;20.20;99.90;;;;;;5017161;28;20201;-58
2022/06/19 10:57:25;;;;;;;7.20;2.90;;;20.20;99.90;;;;;;5034335;28;20288;-59
2022/06/19 10:59:55;;;;;;;7.53;2.53;;;20.30;99.90;;;;;;5032568;28;20197;-58
2022/06/19 11:05:24;;;;;;;6.77;2.93;;;20.30;99.90;;;;;;5023909;28;20210;-58
2022/06/19 11:07:53;;;;;;;6.13;3.03;;;20.40;99.90;;;;;;5019503;28;20199;-59
2022/06/19 11:10:30;;;;;;;8.73;3.30;;;20.40;99.90;;;;;;5026870;28;20206;-58
2022/06/19 11:16:57;;;;;;;6.93;2.83;;;20.40;99.90;;;;;;5027927;28;20253;-58
2022/06/19 11:19:36;;;;;;;5.60;2.87;;;20.20;99.90;;;;;;5039129;28;20275;-58
2022/06/19 11:22:49;;;;;;;6.03;3.07;;;20.10;99.90;;;;;;5031184;28;20224;-58
2022/06/19 11:25:39;;;;;;;9.37;3.13;;;19.90;99.90;;;;;;5020162;28;20570;-59
2022/06/19 11:28:45;;;;;;;6.97;3.57;;;19.80;99.90;;;;;;5018947;28;20220;-58
2022/06/19 11:31:40;;;;;;;9.77;3.87;;;19.70;99.90;;;;;;5029185;28;20646;-58
2022/06/19 11:34:48;;;;;;;6.93;3.63;;;19.60;99.90;;;;;;5028312;28;20205;-58
2022/06/19 11:37:47;;;;;;;8.83;3.87;;;19.50;99.90;;;;;;5026136;28;20197;-57
2022/06/19 11:40:27;;;;;;;5.70;3.40;;;19.40;99.90;;;;;;5035592;28;20769;-58
2022/06/19 11:42:59;;;;;;;6.60;2.93;;;19.40;99.90;;;;;;5026532;28;20678;-58
2022/06/19 11:45:31;;;;;;;4.77;2.80;;;19.50;99.90;;;;;;5026692;28;20213;-58
2022/06/19 11:48:03;;;;;;;7.43;2.90;;;19.50;99.90;;;;;;5030072;28;20268;-58
2022/06/19 11:50:47;;;;;;;4.27;2.50;;;19.50;99.90;;;;;;5030011;28;20423;-57
2022/06/19 11:53:42;;;;;;;5.30;2.83;;;19.60;99.90;;;;;;5025074;28;20941;-58
2022/06/19 11:56:32;;;;;;;5.13;3.33;;;19.60;99.90;;;;;;5024042;28;20658;-59
2022/06/19 11:59:05;;;;;;;3.93;3.30;;;19.40;99.90;;;;;;5031054;28;20197;-58
2022/06/19 12:05:34;;;;;;;9.93;4.93;;;19.40;99.90;;;;;;5059235;28;20271;-58
2022/06/19 12:08:19;;;;;;;7.43;6.40;;;19.30;99.90;;;;;;5056574;28;20227;-58
2022/06/19 12:11:09;;;;;;;9.43;7.67;;;19.20;99.90;;;;;;5059605;28;20198;-58
2022/06/19 12:13:45;;;;;;;13.03;8.37;;;19.00;99.90;;;;;;5072064;28;20203;-59
2022/06/19 12:16:19;;;;;;;10.80;8.63;;;19.00;99.90;;;;;;5056792;28;20196;-58
2022/06/19 12:18:49;;;;;;;17.00;9.93;;;18.90;99.90;;;;;;5070498;28;20274;-58
2022/06/19 12:21:44;;;;;;;12.50;9.13;;;19.00;99.90;;;;;;5074448;28;20216;-58
2022/06/19 12:32:46;;;;;;;10.80;7.97;;;18.80;99.90;;;;;;5074094;28;20172;-58
2022/06/19 12:39:07;;;;;;;11.97;8.60;;;18.40;99.90;;;;;;5073925;28;20177;-57
2022/06/19 12:41:46;;;;;;;12.97;8.53;;;18.10;99.90;;;;;;5072339;28;20188;-57
2022/06/19 12:44:27;;;;;;;14.20;9.27;;;18.00;99.90;;;;;;5071681;28;20265;-58
2022/06/19 12:47:10;;;;;;;15.63;10.20;;;17.80;99.90;;;;;;5074721;28;20195;-58
2022/06/19 12:50:11;;;;;;;21.77;11.33;;;17.60;99.90;;;;;;5071363;28;20282;-58
2022/06/19 12:53:13;;;;;;;15.50;10.60;;;17.50;99.90;;;;;;5068524;28;20199;-58
2022/06/19 12:56:04;;;;;;;20.30;12.00;;;17.50;99.90;;;;;;5063858;28;20222;-57
2022/06/19 12:59:14;;;;;;;17.00;11.67;;;17.40;99.90;;;;;;5068193;28;20267;-58
2022/06/19 13:02:25;;;;;;;21.07;12.93;;;17.40;99.90;;;;;;5073606;28;20559;-58
2022/06/19 13:05:06;;;;;;;22.27;13.70;;;17.30;99.90;;;;;;5053916;28;20306;-58
2022/06/19 13:08:13;;;;;;;21.50;12.93;;;17.30;99.90;;;;;;5055834;28;20217;-58
2022/06/19 13:10:59;;;;;;;25.37;12.50;;;17.20;99.90;;;;;;5056241;28;20284;-57
2022/06/19 13:14:25;;;;;;;29.17;12.90;;;17.20;99.90;;;;;;5072324;28;20199;-57
2022/06/19 13:17:06;;;;;;;23.03;11.80;;;17.10;99.90;;;;;;5051565;28;20230;-57
2022/06/19 13:20:11;;;;;;;21.30;12.00;;;17.10;99.90;;;;;;5069890;28;20207;-58
2022/06/19 13:22:53;;;;;;;21.27;11.33;;;17.10;99.90;;;;;;5074073;28;20331;-57
2022/06/19 13:25:33;;;;;;;18.60;11.23;;;17.10;99.90;;;;;;5073642;28;20379;-57
2022/06/19 13:28:33;;;;;;;23.43;11.13;;;17.10;99.90;;;;;;5059850;28;20267;-57
2022/06/19 13:31:08;;;;;;;21.60;11.00;;;17.10;99.90;;;;;;5068955;28;20197;-58
2022/06/19 13:33:59;;;;;;;18.07;10.17;;;17.20;99.90;;;;;;5072916;28;20186;-58
2022/06/19 13:36:38;;;;;;;20.97;10.40;;;17.30;99.90;;;;;;5059475;28;20696;-58
2022/06/19 13:39:22;;;;;;;20.27;10.47;;;17.30;99.90;;;;;;5071385;28;20196;-57
2022/06/19 13:42:12;;;;;;;16.00;9.20;;;17.50;99.90;;;;;;5074162;28;20642;-58
2022/06/19 13:44:58;;;;;;;17.80;9.10;;;17.70;99.90;;;;;;5071235;28;20301;-57
2022/06/19 13:47:33;;;;;;;22.10;10.80;;;17.90;99.90;;;;;;5057225;28;20204;-57
2022/06/19 13:50:07;;;;;;;17.10;11.67;;;18.00;99.90;;;;;;5067010;28;20196;-58
2022/06/19 13:52:45;;;;;;;19.10;11.23;;;18.10;99.90;;;;;;5079716;28;20199;-58
2022/06/19 13:55:49;;;;;;;18.83;10.80;;;18.20;99.90;;;;;;5060109;28;20210;-58
2022/06/19 13:58:34;;;;;;;18.37;11.37;;;18.20;99.90;;;;;;5066791;28;20214;-59
2022/06/19 14:01:15;;;;;;;21.03;11.07;;;18.30;99.90;;;;;;5051679;28;20200;-58
2022/06/19 14:07:22;;;;;;;18.87;10.77;;;18.30;99.90;;;;;;5071287;28;20192;-57
2022/06/19 14:10:01;;;;;;;16.47;10.50;;;18.40;99.90;;;;;;5057975;28;20192;-58
2022/06/19 14:12:34;;;;;;;20.90;10.13;;;18.40;99.90;;;;;;5074758;28;20196;-58
2022/06/19 14:15:25;;;;;;;17.57;10.10;;;18.70;99.90;;;;;;5065550;28;20196;-58